Time;durP1;ratioP1;P1;durP2;ratioP2;P2;SDS_P1;SDS_P2;PMS_P1;PMS_P2;Temp;Humidity;BMP_temperature;BMP_pressure;BME280_temperature;BME280_humidity;BME280_pressure;Samples;Min_cycle;Max_cycle;Signal;HPM_P1;HPM_P2
2024/01/22 00:01:27;;;;;;;2.63;2.45;;;5.00;22.70;;;;;;5062791;28;20189;-77
2024/01/22 00:03:55;;;;;;;2.55;2.35;;;5.00;22.10;;;;;;5050647;28;20226;-81
2024/01/22 00:06:24;;;;;;;2.47;2.28;;;5.00;21.40;;;;;;5050787;28;20236;-78
2024/01/22 00:08:52;;;;;;;2.60;2.15;;;5.10;24.70;;;;;;5044182;28;20213;-79
2024/01/22 00:11:22;;;;;;;3.20;2.37;;;5.10;23.10;;;;;;5044244;28;20725;-79
2024/01/22 00:13:50;;;;;;;3.57;2.50;;;5.00;21.80;;;;;;5048803;28;20530;-78
2024/01/22 00:16:19;;;;;;;2.97;2.67;;;5.00;21.80;;;;;;5052200;28;20467;-79
2024/01/22 00:18:47;;;;;;;2.63;2.42;;;5.00;23.20;;;;;;5044260;28;20221;-80
2024/01/22 00:21:16;;;;;;;2.97;2.05;;;5.10;20.80;;;;;;5052584;28;20198;-79
2024/01/22 00:23:44;;;;;;;2.47;2.28;;;5.10;21.70;;;;;;5049745;28;20305;-78
2024/01/22 00:26:14;;;;;;;2.97;2.70;;;5.10;20.00;;;;;;5046967;28;20213;-79
2024/01/22 00:28:43;;;;;;;2.63;2.45;;;5.00;20.80;;;;;;5048712;28;20478;-79
2024/01/22 00:31:12;;;;;;;2.70;2.50;;;5.00;20.80;;;;;;5051218;28;20216;-80
2024/01/22 00:33:42;;;;;;;5.70;2.63;;;5.10;21.80;;;;;;5057914;28;20205;-77
2024/01/22 00:36:13;;;;;;;3.38;2.70;;;5.00;21.70;;;;;;5059552;28;20444;-78
2024/01/22 00:38:41;;;;;;;2.65;2.45;;;5.00;21.00;;;;;;5055645;28;20304;-76
2024/01/22 00:41:10;;;;;;;6.50;3.67;;;5.00;20.60;;;;;;5056241;28;20201;-79
2024/01/22 00:43:39;;;;;;;4.93;3.63;;;4.90;18.90;;;;;;5045303;28;20549;-77
2024/01/22 00:46:08;;;;;;;3.75;3.03;;;4.80;19.70;;;;;;5044410;28;20329;-82
2024/01/22 00:48:37;;;;;;;4.90;3.03;;;4.80;19.60;;;;;;5045960;28;20309;-81
2024/01/22 00:51:06;;;;;;;3.03;2.50;;;4.80;20.50;;;;;;5042895;28;20312;-77
2024/01/22 00:53:34;;;;;;;3.30;2.97;;;4.80;20.90;;;;;;5046705;28;20456;-79
2024/01/22 00:56:03;;;;;;;3.03;2.72;;;4.80;20.60;;;;;;5050864;28;20190;-76
2024/01/22 00:58:34;;;;;;;3.55;2.80;;;4.70;20.90;;;;;;5046834;28;20260;-77
2024/01/22 01:01:03;;;;;;;6.47;2.38;;;4.70;22.00;;;;;;5048833;28;20264;-79
2024/01/22 01:03:32;;;;;;;2.40;2.20;;;4.70;22.40;;;;;;5051453;28;20198;-77
2024/01/22 01:06:01;;;;;;;2.10;2.00;;;4.70;23.20;;;;;;5055900;28;20301;-78
2024/01/22 01:08:30;;;;;;;2.20;2.05;;;4.80;25.00;;;;;;5047064;28;20215;-81
2024/01/22 01:10:58;;;;;;;2.38;1.90;;;4.80;26.50;;;;;;5045895;28;20820;-78
2024/01/22 01:13:26;;;;;;;2.95;2.20;;;4.80;26.20;;;;;;5053795;28;20202;-76
2024/01/22 01:15:54;;;;;;;4.00;3.75;;;4.90;28.00;;;;;;5057897;28;20201;-81
2024/01/22 01:18:23;;;;;;;2.00;1.90;;;4.90;29.20;;;;;;5056797;28;20225;-79
2024/01/22 01:20:52;;;;;;;2.33;2.22;;;4.90;30.70;;;;;;5057477;28;20464;-77
2024/01/22 01:23:21;;;;;;;3.43;2.93;;;4.90;32.10;;;;;;5055760;28;20212;-78
2024/01/22 01:25:49;;;;;;;3.70;3.10;;;4.90;31.60;;;;;;5053357;28;20448;-81
2024/01/22 01:28:17;;;;;;;2.42;2.22;;;4.90;37.40;;;;;;5055472;28;20562;-80
2024/01/22 01:30:46;;;;;;;3.30;2.63;;;4.90;36.40;;;;;;5045720;28;20379;-81
2024/01/22 01:33:14;;;;;;;2.80;2.55;;;4.90;36.70;;;;;;5057991;28;21004;-78
2024/01/22 01:35:43;;;;;;;2.50;2.15;;;4.90;35.00;;;;;;5051440;28;20210;-76
2024/01/22 01:38:13;;;;;;;2.30;2.10;;;4.80;35.30;;;;;;5056892;28;20209;-80
2024/01/22 01:40:41;;;;;;;2.55;2.35;;;4.80;35.70;;;;;;5050342;28;20209;-77
2024/01/22 01:43:10;;;;;;;4.72;2.30;;;4.80;35.80;;;;;;5044480;28;20232;-78
2024/01/22 01:45:38;;;;;;;2.65;2.30;;;4.70;35.40;;;;;;5037962;28;20206;-78
2024/01/22 01:48:07;;;;;;;2.47;2.28;;;4.80;36.20;;;;;;5043522;28;20293;-78
2024/01/22 01:50:35;;;;;;;3.10;2.53;;;4.80;35.20;;;;;;5039737;28;20212;-76
2024/01/22 01:53:05;;;;;;;3.00;2.47;;;4.80;38.00;;;;;;5041369;28;20577;-77
2024/01/22 01:55:36;;;;;;;2.67;2.20;;;4.80;38.10;;;;;;5046710;28;20525;-78
2024/01/22 01:58:06;;;;;;;4.80;2.67;;;4.70;36.70;;;;;;5040925;28;20252;-79
2024/01/22 02:00:34;;;;;;;2.28;2.17;;;4.70;37.50;;;;;;5041508;28;20496;-79
2024/01/22 02:03:03;;;;;;;2.65;1.80;;;4.70;37.70;;;;;;5040278;28;20802;-79
2024/01/22 02:05:31;;;;;;;5.80;2.85;;;4.60;37.90;;;;;;5045479;28;20204;-77
2024/01/22 02:08:00;;;;;;;2.87;2.67;;;4.60;38.30;;;;;;5043483;28;20233;-77
2024/01/22 02:10:29;;;;;;;4.05;2.65;;;4.70;48.70;;;;;;5041285;28;20456;-75
2024/01/22 02:12:58;;;;;;;2.10;2.00;;;4.70;40.30;;;;;;5043921;28;20226;-80
2024/01/22 02:15:26;;;;;;;3.00;2.80;;;4.70;40.60;;;;;;5038252;28;20202;-77
2024/01/22 02:17:55;;;;;;;2.30;2.00;;;4.80;42.90;;;;;;5049940;28;20218;-80
2024/01/22 02:20:23;;;;;;;1.95;1.80;;;4.80;45.60;;;;;;5044063;28;20203;-79
2024/01/22 02:22:51;;;;;;;3.45;1.90;;;4.90;49.80;;;;;;5039412;28;20194;-79
2024/01/22 02:25:21;;;;;;;2.15;1.95;;;5.00;51.90;;;;;;5049620;28;20205;-76
2024/01/22 02:27:49;;;;;;;2.03;1.92;;;5.00;52.50;;;;;;5036074;28;20610;-78
2024/01/22 02:30:17;;;;;;;5.22;2.33;;;5.00;54.10;;;;;;5040067;28;20260;-79
2024/01/22 02:32:46;;;;;;;2.55;2.35;;;5.10;55.70;;;;;;5046408;28;20767;-78
2024/01/22 02:35:14;;;;;;;2.35;2.10;;;5.10;56.90;;;;;;5055957;28;20215;-77
2024/01/22 02:37:42;;;;;;;2.60;2.30;;;5.10;55.20;;;;;;5051712;28;20221;-78
2024/01/22 02:40:11;;;;;;;2.42;2.22;;;5.10;56.00;;;;;;5054915;28;20208;-77
2024/01/22 02:42:40;;;;;;;1.90;1.80;;;5.00;55.90;;;;;;5053008;28;20197;-76
2024/01/22 02:45:10;;;;;;;2.37;2.17;;;5.00;55.90;;;;;;5035641;28;20198;-79
2024/01/22 02:47:38;;;;;;;2.53;2.33;;;5.00;58.50;;;;;;5041035;28;20480;-78
2024/01/22 02:50:08;;;;;;;2.88;2.67;;;5.00;63.10;;;;;;5052376;28;20196;-80
2024/01/22 02:52:36;;;;;;;2.83;2.60;;;5.10;71.30;;;;;;5049102;28;20216;-78
2024/01/22 02:55:05;;;;;;;2.42;2.30;;;5.10;72.60;;;;;;5039611;28;20198;-77
2024/01/22 02:57:33;;;;;;;2.80;2.58;;;5.10;73.30;;;;;;5050270;28;20213;-79
2024/01/22 03:00:02;;;;;;;2.67;2.47;;;5.10;71.90;;;;;;5043866;28;20208;-77
2024/01/22 03:02:31;;;;;;;3.10;2.90;;;5.10;78.80;;;;;;5039977;28;20447;-81
2024/01/22 03:04:59;;;;;;;2.22;2.10;;;5.10;76.00;;;;;;5047271;28;20200;-79
2024/01/22 03:07:27;;;;;;;2.83;2.60;;;5.10;82.00;;;;;;5055627;28;20278;-76
2024/01/22 03:09:56;;;;;;;2.08;1.98;;;5.10;84.10;;;;;;5046707;28;20272;-80
2024/01/22 03:12:24;;;;;;;2.65;2.45;;;5.10;80.70;;;;;;5041639;28;20214;-80
2024/01/22 03:14:52;;;;;;;3.27;2.90;;;5.00;75.80;;;;;;5035805;28;20795;-76
2024/01/22 03:17:22;;;;;;;2.95;2.75;;;5.00;78.40;;;;;;5038406;28;20539;-80
2024/01/22 03:19:50;;;;;;;2.30;2.20;;;5.00;79.70;;;;;;5040336;28;20723;-78
2024/01/22 03:22:18;;;;;;;2.55;2.45;;;5.10;82.80;;;;;;5040341;28;20193;-76
2024/01/22 03:24:48;;;;;;;2.83;2.50;;;5.10;87.50;;;;;;5040704;28;20846;-78
2024/01/22 03:27:16;;;;;;;3.60;2.47;;;5.20;87.40;;;;;;5045324;28;20746;-80
2024/01/22 03:29:45;;;;;;;2.95;2.63;;;5.20;91.30;;;;;;5045722;28;20479;-79
2024/01/22 03:32:13;;;;;;;3.40;2.60;;;5.10;87.70;;;;;;5046550;28;20216;-79
2024/01/22 03:34:42;;;;;;;3.00;2.70;;;5.20;89.90;;;;;;5044225;28;20954;-79
2024/01/22 03:37:11;;;;;;;2.70;2.50;;;5.20;90.50;;;;;;5046836;28;20479;-79
2024/01/22 03:39:39;;;;;;;2.80;2.50;;;5.20;91.50;;;;;;5042165;28;20194;-81
2024/01/22 03:42:11;;;;;;;2.85;2.65;;;5.20;90.70;;;;;;5043740;28;20206;-77
2024/01/22 03:44:40;;;;;;;2.03;1.92;;;5.20;92.20;;;;;;5044866;28;20202;-77
2024/01/22 03:47:09;;;;;;;2.77;2.40;;;5.20;91.70;;;;;;5049819;28;20204;-78
2024/01/22 03:49:37;;;;;;;2.73;2.53;;;5.20;91.30;;;;;;5050268;28;20451;-78
2024/01/22 03:52:07;;;;;;;2.78;2.40;;;5.30;94.20;;;;;;5044962;28;20459;-79
2024/01/22 03:54:35;;;;;;;3.63;2.87;;;5.20;94.20;;;;;;5045354;28;20262;-81
2024/01/22 03:57:07;;;;;;;2.35;2.25;;;5.20;93.40;;;;;;5042151;28;20549;-79
2024/01/22 03:59:35;;;;;;;2.55;2.35;;;5.20;94.20;;;;;;5038619;28;20205;-81
2024/01/22 04:02:04;;;;;;;2.42;2.33;;;5.30;94.70;;;;;;5041570;28;20205;-82
2024/01/22 04:04:32;;;;;;;2.53;2.38;;;5.30;94.50;;;;;;5043040;28;20693;-84
2024/01/22 04:07:00;;;;;;;2.03;1.83;;;5.30;98.30;;;;;;5050832;28;20202;-78
2024/01/22 04:09:30;;;;;;;2.90;2.40;;;5.40;94.70;;;;;;5049882;28;20221;-80
2024/01/22 04:11:58;;;;;;;2.75;2.13;;;5.40;94.40;;;;;;5043356;28;20442;-79
2024/01/22 04:14:26;;;;;;;2.53;2.33;;;5.30;94.30;;;;;;5040117;28;20312;-79
2024/01/22 04:16:55;;;;;;;3.35;2.20;;;5.40;94.50;;;;;;5038783;28;20908;-78
2024/01/22 04:19:23;;;;;;;2.60;2.30;;;5.40;94.30;;;;;;5040379;28;20233;-77
2024/01/22 04:21:51;;;;;;;2.60;2.40;;;5.50;94.50;;;;;;5050316;28;20201;-78
2024/01/22 04:24:19;;;;;;;2.03;1.92;;;5.50;94.50;;;;;;5051766;28;20468;-78
2024/01/22 04:26:49;;;;;;;2.53;2.23;;;5.50;94.40;;;;;;5049059;28;20733;-78
2024/01/22 04:29:17;;;;;;;2.67;2.47;;;5.50;94.40;;;;;;5043514;28;20471;-81
2024/01/22 04:31:46;;;;;;;2.03;1.92;;;5.60;95.00;;;;;;5042108;28;20190;-77
2024/01/22 04:34:14;;;;;;;2.23;2.13;;;5.50;94.60;;;;;;5054164;28;20224;-78
2024/01/22 04:36:42;;;;;;;2.33;2.10;;;5.60;94.90;;;;;;5052963;28;20516;-79
2024/01/22 04:39:11;;;;;;;2.63;2.42;;;5.60;95.50;;;;;;5054430;28;20464;-77
2024/01/22 04:41:39;;;;;;;4.47;2.20;;;5.60;94.50;;;;;;5053888;28;20250;-79
2024/01/22 04:44:09;;;;;;;3.15;1.98;;;5.60;97.70;;;;;;5059814;28;20534;-79
2024/01/22 04:46:37;;;;;;;2.83;2.63;;;5.60;94.60;;;;;;5049477;28;20216;-80
2024/01/22 04:49:05;;;;;;;2.47;2.38;;;5.60;94.50;;;;;;5051965;28;20502;-80
2024/01/22 04:51:33;;;;;;;3.10;2.70;;;5.60;94.30;;;;;;5049694;28;20281;-79
2024/01/22 04:54:01;;;;;;;2.63;2.42;;;5.60;94.50;;;;;;5051795;28;20228;-77
2024/01/22 04:56:30;;;;;;;2.73;2.53;;;5.60;94.40;;;;;;5044318;28;21078;-80
2024/01/22 04:58:58;;;;;;;2.37;2.13;;;5.70;99.90;;;;;;5044738;28;20481;-76
2024/01/22 05:01:27;;;;;;;2.92;2.60;;;5.60;95.00;;;;;;5045377;28;20452;-77
2024/01/22 05:03:55;;;;;;;3.43;3.23;;;5.60;95.90;;;;;;5051093;28;20281;-79
2024/01/22 05:06:24;;;;;;;3.50;3.20;;;5.60;98.30;;;;;;5055990;28;20554;-77
2024/01/22 05:08:52;;;;;;;3.63;2.50;;;5.60;97.70;;;;;;5046387;28;20508;-81
2024/01/22 05:11:21;;;;;;;2.20;2.10;;;5.60;95.60;;;;;;5052784;28;20208;-77
2024/01/22 05:13:50;;;;;;;2.40;2.30;;;5.60;96.20;;;;;;5054602;28;20472;-80
2024/01/22 05:16:18;;;;;;;4.20;2.87;;;5.70;97.20;;;;;;5048871;28;20198;-79
2024/01/22 05:18:48;;;;;;;2.43;2.23;;;5.70;99.50;;;;;;5041091;28;20566;-79
2024/01/22 05:21:17;;;;;;;3.27;2.77;;;5.70;95.80;;;;;;5048092;28;20444;-79
2024/01/22 05:23:46;;;;;;;3.40;3.20;;;5.70;97.60;;;;;;5050495;28;20448;-79
2024/01/22 05:26:14;;;;;;;4.78;2.88;;;5.70;99.30;;;;;;5045716;28;20957;-81
2024/01/22 05:28:42;;;;;;;2.70;2.60;;;5.60;99.90;;;;;;5045986;28;20226;-79
2024/01/22 05:31:10;;;;;;;2.92;2.80;;;5.60;99.90;;;;;;5043816;28;20444;-79
2024/01/22 05:33:39;;;;;;;3.10;2.90;;;5.60;99.90;;;;;;5042164;28;20219;-76
2024/01/22 05:36:09;;;;;;;3.33;2.70;;;5.60;99.90;;;;;;5045194;28;20445;-75
2024/01/22 05:38:41;;;;;;;2.70;2.50;;;5.60;99.90;;;;;;5037337;28;20476;-78
2024/01/22 05:41:09;;;;;;;2.90;2.70;;;5.60;99.90;;;;;;5040988;28;20467;-75
2024/01/22 05:43:37;;;;;;;3.27;3.03;;;5.70;99.90;;;;;;5043420;28;20542;-75
2024/01/22 05:46:05;;;;;;;4.83;3.13;;;5.70;99.90;;;;;;5038367;28;20452;-75
2024/01/22 05:48:34;;;;;;;3.50;3.20;;;5.60;99.90;;;;;;5040151;28;20498;-79
2024/01/22 05:51:02;;;;;;;3.33;3.07;;;5.70;99.90;;;;;;5038466;28;21222;-77
2024/01/22 05:53:31;;;;;;;4.40;3.40;;;5.70;99.90;;;;;;5045951;28;20448;-77
2024/01/22 05:55:59;;;;;;;3.33;3.13;;;5.70;99.90;;;;;;5042919;28;20452;-77
2024/01/22 05:58:28;;;;;;;3.20;3.00;;;5.70;99.90;;;;;;5033895;28;20212;-78
2024/01/22 06:00:56;;;;;;;2.40;2.20;;;5.70;99.90;;;;;;5040078;28;20202;-77
2024/01/22 06:03:24;;;;;;;3.83;3.37;;;5.70;99.90;;;;;;5053048;28;20201;-78
2024/01/22 06:05:52;;;;;;;3.13;2.93;;;5.70;99.90;;;;;;5042941;28;20445;-76
2024/01/22 06:08:21;;;;;;;3.00;2.80;;;5.70;99.90;;;;;;5046287;28;20478;-74
2024/01/22 06:10:51;;;;;;;2.80;2.60;;;5.70;99.90;;;;;;5044448;28;20448;-80
2024/01/22 06:13:19;;;;;;;3.00;2.80;;;5.70;99.90;;;;;;5043580;28;20562;-77
2024/01/22 06:15:47;;;;;;;3.60;2.93;;;5.70;99.90;;;;;;5042356;28;20233;-78
2024/01/22 06:18:15;;;;;;;2.73;2.53;;;5.80;99.90;;;;;;5043280;28;20478;-74
2024/01/22 06:20:44;;;;;;;2.87;2.67;;;5.80;99.90;;;;;;5051013;28;20459;-78
2024/01/22 06:23:12;;;;;;;3.30;3.10;;;5.80;99.90;;;;;;5053162;28;20452;-79
2024/01/22 06:25:42;;;;;;;2.78;2.58;;;5.80;99.90;;;;;;5048165;28;20539;-79
2024/01/22 06:28:12;;;;;;;3.08;2.85;;;5.80;99.90;;;;;;5041363;28;20225;-80
2024/01/22 06:30:40;;;;;;;2.50;2.30;;;5.80;99.90;;;;;;5049335;28;20197;-78
2024/01/22 06:33:09;;;;;;;2.80;2.60;;;5.90;99.90;;;;;;5044132;28;20463;-78
2024/01/22 06:35:37;;;;;;;2.90;2.70;;;5.80;99.90;;;;;;5047233;28;20225;-74
2024/01/22 06:38:06;;;;;;;3.03;2.93;;;5.90;99.90;;;;;;5052806;28;20474;-76
2024/01/22 06:40:34;;;;;;;3.90;3.60;;;5.90;99.90;;;;;;5052973;28;20459;-79
2024/01/22 06:43:03;;;;;;;2.77;2.57;;;5.80;99.90;;;;;;5052637;28;20617;-77
2024/01/22 06:45:33;;;;;;;2.87;2.63;;;5.90;99.90;;;;;;5053632;28;20459;-78
2024/01/22 06:48:01;;;;;;;2.73;2.60;;;5.90;99.90;;;;;;5048006;28;20477;-78
2024/01/22 06:50:30;;;;;;;4.43;2.53;;;5.90;99.90;;;;;;5050204;28;20997;-79
2024/01/22 06:52:58;;;;;;;2.60;2.50;;;5.90;99.90;;;;;;5045652;28;20558;-78
2024/01/22 06:55:26;;;;;;;2.50;2.30;;;6.00;99.90;;;;;;5055038;28;20476;-78
2024/01/22 06:57:54;;;;;;;2.53;2.33;;;6.00;99.90;;;;;;5050811;28;20472;-78
2024/01/22 07:00:23;;;;;;;2.80;2.60;;;6.00;94.70;;;;;;5056295;28;20443;-77
2024/01/22 07:02:52;;;;;;;2.17;2.07;;;6.00;98.20;;;;;;5050987;28;20466;-79
2024/01/22 07:05:21;;;;;;;2.47;2.37;;;6.10;95.20;;;;;;5054493;28;20456;-78
2024/01/22 07:07:49;;;;;;;2.70;2.50;;;6.10;96.10;;;;;;5051369;28;20494;-80
2024/01/22 07:10:17;;;;;;;2.77;2.57;;;6.10;97.00;;;;;;5049944;28;20482;-79
2024/01/22 07:12:45;;;;;;;5.97;3.10;;;6.10;99.90;;;;;;5055109;28;20452;-78
2024/01/22 07:15:14;;;;;;;2.27;2.17;;;6.10;97.70;;;;;;5054787;28;20483;-76
2024/01/22 07:17:42;;;;;;;2.30;2.20;;;6.10;95.00;;;;;;5045318;28;20481;-77
2024/01/22 07:20:14;;;;;;;2.40;2.20;;;6.20;95.00;;;;;;5048297;28;20451;-79
2024/01/22 07:22:45;;;;;;;1.80;1.70;;;6.20;95.30;;;;;;5046885;28;20444;-78
2024/01/22 07:25:16;;;;;;;2.63;2.40;;;6.20;94.70;;;;;;5051629;28;20462;-79
2024/01/22 07:27:45;;;;;;;2.50;2.30;;;6.30;95.00;;;;;;5051871;28;20847;-76
2024/01/22 07:30:14;;;;;;;2.37;2.17;;;6.30;94.90;;;;;;5044875;28;20555;-74
2024/01/22 07:32:44;;;;;;;2.97;2.60;;;6.40;94.90;;;;;;5053256;28;20452;-74
2024/01/22 07:35:14;;;;;;;3.10;3.00;;;6.40;94.80;;;;;;5055336;28;20464;-77
2024/01/22 07:37:44;;;;;;;4.10;2.33;;;6.40;95.50;;;;;;5055270;28;20477;-75
2024/01/22 07:40:15;;;;;;;3.03;2.40;;;6.40;94.90;;;;;;5048243;28;20479;-77
2024/01/22 07:42:43;;;;;;;2.73;2.20;;;6.40;94.80;;;;;;5050150;28;20452;-75
2024/01/22 07:45:12;;;;;;;1.87;1.77;;;6.50;95.60;;;;;;5047472;28;20495;-76
2024/01/22 07:47:42;;;;;;;2.03;1.80;;;6.50;99.30;;;;;;5048498;28;20467;-78
2024/01/22 07:50:13;;;;;;;3.17;2.93;;;6.50;99.60;;;;;;5057480;28;20452;-76
2024/01/22 07:52:44;;;;;;;8.60;5.23;;;6.50;99.00;;;;;;5050942;28;20512;-77
2024/01/22 07:55:17;;;;;;;3.33;2.40;;;6.60;99.90;;;;;;5051716;28;20939;-75
2024/01/22 07:57:46;;;;;;;2.13;1.80;;;6.60;99.90;;;;;;5046264;28;21593;-77
2024/01/22 08:00:15;;;;;;;1.70;1.60;;;6.70;99.90;;;;;;5049575;28;20509;-79
2024/01/22 08:02:43;;;;;;;1.80;1.70;;;6.70;99.90;;;;;;5048827;28;20550;-76
2024/01/22 08:05:13;;;;;;;1.70;1.60;;;6.80;99.90;;;;;;5051464;28;21482;-74
2024/01/22 08:07:44;;;;;;;2.07;1.97;;;6.90;99.90;;;;;;5049882;28;20476;-77
2024/01/22 08:10:13;;;;;;;2.00;1.70;;;7.00;99.90;;;;;;5049026;28;20541;-75
2024/01/22 08:12:42;;;;;;;1.77;1.67;;;7.00;99.90;;;;;;5051234;28;20462;-79
2024/01/22 08:15:14;;;;;;;1.60;1.50;;;7.10;99.90;;;;;;5047172;28;20480;-74
2024/01/22 08:17:45;;;;;;;1.70;1.60;;;7.10;99.90;;;;;;5055726;28;20570;-77
2024/01/22 08:20:15;;;;;;;1.93;1.80;;;7.20;99.90;;;;;;5055109;28;21296;-77
2024/01/22 08:22:46;;;;;;;1.70;1.60;;;7.20;99.90;;;;;;5058430;28;20520;-78
2024/01/22 08:25:19;;;;;;;2.00;1.90;;;7.30;99.90;;;;;;5060224;28;20456;-76
2024/01/22 08:27:48;;;;;;;1.90;1.80;;;7.30;99.90;;;;;;5056570;28;20866;-77
2024/01/22 08:30:16;;;;;;;1.83;1.70;;;7.30;99.90;;;;;;5047821;28;20444;-76
2024/01/22 08:32:45;;;;;;;1.80;1.70;;;7.30;99.90;;;;;;5048638;28;20471;-76
2024/01/22 08:35:14;;;;;;;1.87;1.77;;;7.30;99.90;;;;;;5060155;28;20484;-74
2024/01/22 08:37:45;;;;;;;2.80;2.00;;;7.40;99.90;;;;;;5057009;28;20502;-77
2024/01/22 08:40:17;;;;;;;2.00;1.90;;;7.50;99.90;;;;;;5055823;28;20542;-73
2024/01/22 08:42:46;;;;;;;2.40;2.00;;;7.50;99.90;;;;;;5057675;28;20447;-73
2024/01/22 08:45:14;;;;;;;1.93;1.83;;;7.60;99.90;;;;;;5056665;28;20462;-76
2024/01/22 08:47:44;;;;;;;1.77;1.77;;;7.60;99.90;;;;;;5056971;28;20478;-74
2024/01/22 08:50:15;;;;;;;1.80;1.80;;;7.70;99.90;;;;;;5057667;28;20453;-77
2024/01/22 08:52:44;;;;;;;2.03;1.93;;;7.80;1.00;;;;;;5054621;28;20551;-74
2024/01/22 08:55:14;;;;;;;2.10;2.10;;;7.80;1.00;;;;;;5060098;28;20547;-74
2024/01/22 08:57:43;;;;;;;2.30;2.20;;;7.90;1.00;;;;;;5058147;28;20482;-74
2024/01/22 09:00:14;;;;;;;2.37;2.37;;;8.00;1.00;;;;;;5057548;28;20499;-76
2024/01/22 09:02:44;;;;;;;2.53;2.43;;;8.10;1.00;;;;;;5057927;28;20466;-76
2024/01/22 09:05:14;;;;;;;2.63;2.53;;;8.10;1.00;;;;;;5058545;28;20456;-77
2024/01/22 09:07:43;;;;;;;2.50;2.50;;;8.20;94.60;;;;;;5056432;28;20501;-77
2024/01/22 09:10:11;;;;;;;3.30;3.20;;;8.30;99.90;;;;;;5048141;28;20500;-74
2024/01/22 09:12:41;;;;;;;3.70;3.40;;;8.40;99.90;;;;;;5051749;28;20210;-74
2024/01/22 09:15:10;;;;;;;4.87;4.57;;;8.40;25.30;;;;;;5051689;28;21023;-74
2024/01/22 09:17:40;;;;;;;4.07;3.87;;;8.50;1.00;;;;;;5054776;28;20479;-76
2024/01/22 09:20:09;;;;;;;3.40;3.30;;;8.60;1.00;;;;;;5058458;28;20456;-74
2024/01/22 09:22:37;;;;;;;3.43;3.33;;;8.70;1.00;;;;;;5056885;28;20486;-75
2024/01/22 09:25:06;;;;;;;3.83;3.73;;;8.70;1.00;;;;;;5054763;28;20456;-75
2024/01/22 09:27:35;;;;;;;4.03;3.63;;;8.70;1.00;;;;;;5055115;28;20470;-75
2024/01/22 09:30:06;;;;;;;4.20;4.10;;;8.80;1.00;;;;;;5053744;28;20448;-76
2024/01/22 09:32:35;;;;;;;3.90;3.80;;;8.90;1.00;;;;;;5057715;28;20451;-73
2024/01/22 09:35:05;;;;;;;4.30;4.20;;;9.00;1.00;;;;;;5058959;28;20543;-76
2024/01/22 09:37:34;;;;;;;4.00;3.90;;;9.00;1.00;;;;;;5059076;28;21010;-75
2024/01/22 09:40:03;;;;;;;4.30;4.20;;;9.10;3.80;;;;;;5055508;28;20488;-75
2024/01/22 09:42:32;;;;;;;4.47;4.37;;;9.20;1.00;;;;;;5052774;28;20486;-76
2024/01/22 09:45:02;;;;;;;5.13;4.73;;;9.20;1.00;;;;;;5059654;28;20436;-74
2024/01/22 09:47:32;;;;;;;4.70;4.50;;;9.20;3.60;;;;;;5049757;28;20558;-75
2024/01/22 09:50:01;;;;;;;4.63;4.53;;;9.20;6.40;;;;;;5053842;28;20975;-76
2024/01/22 09:52:32;;;;;;;5.00;4.80;;;9.20;99.90;;;;;;5059432;28;20452;-75
2024/01/22 09:55:01;;;;;;;4.80;4.70;;;9.20;99.90;;;;;;5057521;28;20476;-78
2024/01/22 09:57:29;;;;;;;5.00;4.90;;;9.20;99.90;;;;;;5053189;28;20582;-74
2024/01/22 09:59:59;;;;;;;5.30;5.20;;;9.20;99.90;;;;;;5056034;28;20459;-75
2024/01/22 10:02:27;;;;;;;5.40;5.30;;;9.30;99.90;;;;;;5048601;28;20454;-76
2024/01/22 10:05:01;;;;;;;5.57;5.47;;;9.30;99.90;;;;;;5049166;28;20456;-78
2024/01/22 10:07:31;;;;;;;5.30;5.20;;;9.30;99.90;;;;;;5052357;28;21148;-75
2024/01/22 10:09:59;;;;;;;5.70;5.60;;;9.30;99.90;;;;;;5052001;28;20432;-75
2024/01/22 10:12:28;;;;;;;6.47;6.27;;;9.30;99.90;;;;;;5049707;28;20533;-75
2024/01/22 10:14:56;;;;;;;5.73;5.63;;;9.40;99.90;;;;;;5051320;28;21200;-74
2024/01/22 10:17:27;;;;;;;6.13;5.83;;;9.50;99.90;;;;;;5055273;28;20466;-75
2024/01/22 10:20:08;;;;;;;6.33;6.13;;;9.40;99.90;;;;;;5058231;28;20466;-74
2024/01/22 10:22:36;;;;;;;6.30;6.20;;;9.50;99.90;;;;;;5051374;28;20475;-74
2024/01/22 10:25:06;;;;;;;6.70;6.50;;;9.50;1.00;;;;;;5049043;28;20464;-77
2024/01/22 10:27:34;;;;;;;6.23;6.13;;;9.50;99.90;;;;;;5054396;28;20491;-75
2024/01/22 10:30:13;;;;;;;6.30;6.20;;;9.50;1.00;;;;;;5058657;28;20458;-76
2024/01/22 10:32:43;;;;;;;6.50;6.40;;;9.50;1.00;;;;;;5055459;28;20462;-74
2024/01/22 10:35:25;;;;;;;6.60;6.50;;;9.50;1.00;;;;;;5054559;28;20464;-77
2024/01/22 10:38:07;;;;;;;7.00;6.77;;;9.40;1.70;;;;;;5052924;28;20876;-75
2024/01/22 10:40:36;;;;;;;6.30;6.20;;;9.50;47.70;;;;;;5053734;28;20965;-76
2024/01/22 10:43:21;;;;;;;6.20;6.10;;;9.50;1.00;;;;;;5056138;28;20963;-78
2024/01/22 10:45:51;;;;;;;6.57;6.47;;;9.40;99.90;;;;;;5058185;28;20517;-78
2024/01/22 10:48:23;;;;;;;6.90;6.80;;;9.50;99.90;;;;;;5057999;28;20470;-77
2024/01/22 10:51:11;;;;;;;7.70;7.50;;;9.50;73.10;;;;;;5054191;28;20465;-79
2024/01/22 10:53:41;;;;;;;7.53;7.43;;;9.50;40.90;;;;;;5054321;28;20474;-74
2024/01/22 10:56:16;;;;;;;7.60;7.40;;;9.60;1.00;;;;;;5055054;28;20455;-78
2024/01/22 10:58:45;;;;;;;6.93;6.83;;;9.50;99.90;;;;;;5050900;28;20464;-76
2024/01/22 11:01:19;;;;;;;7.47;7.37;;;9.60;30.00;;;;;;5056184;28;20459;-77
2024/01/22 11:03:49;;;;;;;7.20;7.10;;;9.50;99.90;;;;;;5049769;28;20452;-78
2024/01/22 11:06:24;;;;;;;7.10;7.00;;;9.60;99.90;;;;;;5057001;28;20506;-76
2024/01/22 11:08:55;;;;;;;7.43;7.13;;;9.60;99.90;;;;;;5057195;28;20479;-78
2024/01/22 11:11:26;;;;;;;7.40;7.30;;;9.60;99.90;;;;;;5056457;28;20455;-79
2024/01/22 11:13:56;;;;;;;7.20;7.10;;;9.70;99.90;;;;;;5046069;28;20973;-80
2024/01/22 11:16:25;;;;;;;8.40;7.87;;;9.70;99.90;;;;;;5056989;28;20554;-83
2024/01/22 11:18:55;;;;;;;7.60;7.50;;;9.70;99.90;;;;;;5052430;28;21064;-80
2024/01/22 11:21:32;;;;;;;8.13;7.90;;;9.80;99.90;;;;;;5053818;28;21031;-78
2024/01/22 11:24:05;;;;;;;8.30;8.10;;;9.70;1.00;;;;;;5048182;28;20550;-74
2024/01/22 11:26:34;;;;;;;8.40;8.30;;;9.70;1.00;;;;;;5055071;28;20470;-77
2024/01/22 11:29:06;;;;;;;8.50;8.30;;;9.80;1.00;;;;;;5051583;28;20567;-78
2024/01/22 11:31:35;;;;;;;9.67;9.47;;;9.70;1.00;;;;;;5044908;28;20475;-82
2024/01/22 11:34:04;;;;;;;8.70;8.50;;;9.80;1.00;;;;;;5048969;28;20452;-76
2024/01/22 11:36:55;;;;;;;8.77;8.60;;;9.80;99.90;;;;;;5048573;28;20455;-76
2024/01/22 11:39:43;;;;;;;8.90;8.70;;;9.80;99.90;;;;;;5045207;28;20468;-81
2024/01/22 11:42:29;;;;;;;9.07;8.90;;;9.90;99.90;;;;;;5052879;28;20479;-81
2024/01/22 11:45:08;;;;;;;9.50;9.30;;;9.80;39.80;;;;;;5045926;28;20459;-81
2024/01/22 11:47:38;;;;;;;10.40;10.10;;;9.80;99.90;;;;;;5052151;28;20470;-78
2024/01/22 11:50:08;;;;;;;10.20;10.00;;;9.90;94.90;;;;;;5049366;28;20613;-81
2024/01/22 11:52:38;;;;;;;9.23;9.10;;;9.90;1.00;;;;;;5048604;28;21276;-78
2024/01/22 11:55:08;;;;;;;9.70;9.50;;;9.90;1.80;;;;;;5049323;28;20492;-79
2024/01/22 11:57:38;;;;;;;10.60;10.30;;;9.90;45.70;;;;;;5046369;28;20498;-79
2024/01/22 12:00:11;;;;;;;9.40;9.30;;;9.90;1.00;;;;;;5053014;28;20450;-79
2024/01/22 12:02:42;;;;;;;9.33;9.13;;;10.00;1.00;;;;;;5052301;28;20484;-78
2024/01/22 12:05:12;;;;;;;9.57;9.37;;;10.00;1.00;;;;;;5053913;28;20451;-79
2024/01/22 12:07:44;;;;;;;9.00;8.90;;;10.00;99.90;;;;;;5049237;28;21216;-77
2024/01/22 12:10:20;;;;;;;10.03;9.83;;;10.00;99.90;;;;;;5052514;28;20551;-78
2024/01/22 12:12:53;;;;;;;9.33;9.13;;;10.00;99.90;;;;;;5053557;28;20466;-78
2024/01/22 12:15:23;;;;;;;9.60;9.40;;;10.00;99.90;;;;;;5050185;28;20452;-76
2024/01/22 12:17:53;;;;;;;9.40;9.20;;;10.00;1.00;;;;;;5060648;28;20482;-81
2024/01/22 12:20:23;;;;;;;9.70;9.60;;;10.10;99.90;;;;;;5054924;28;20491;-78
2024/01/22 12:23:00;;;;;;;10.30;10.10;;;10.10;1.00;;;;;;5061803;28;20451;-80
2024/01/22 12:25:36;;;;;;;10.27;10.07;;;10.10;99.90;;;;;;5050440;28;21948;-79
2024/01/22 12:28:08;;;;;;;10.30;10.10;;;10.10;99.90;;;;;;5049927;28;20474;-81
2024/01/22 12:30:38;;;;;;;10.23;10.03;;;10.10;99.90;;;;;;5041758;28;21939;-80
2024/01/22 12:33:06;;;;;;;10.30;10.10;;;10.20;99.90;;;;;;5049445;28;20451;-78
2024/01/22 12:35:36;;;;;;;9.70;9.50;;;10.00;99.90;;;;;;5060689;28;20451;-76
2024/01/22 12:38:12;;;;;;;10.60;10.40;;;10.10;99.90;;;;;;5055077;28;20478;-80
2024/01/22 12:40:42;;;;;;;10.40;10.20;;;10.10;99.90;;;;;;5045545;28;20583;-81
2024/01/22 12:43:10;;;;;;;10.20;10.00;;;10.10;99.90;;;;;;5054753;28;20877;-75
2024/01/22 12:45:39;;;;;;;10.00;9.90;;;10.10;99.90;;;;;;5058191;28;20866;-77
2024/01/22 12:48:08;;;;;;;10.10;9.90;;;10.10;99.90;;;;;;5055073;28;20485;-77
2024/01/22 12:50:37;;;;;;;10.53;10.33;;;10.10;1.00;;;;;;5052976;28;20531;-79
2024/01/22 12:53:06;;;;;;;10.60;10.40;;;10.20;99.90;;;;;;5055614;28;20454;-77
2024/01/22 12:55:36;;;;;;;10.63;10.43;;;10.20;99.90;;;;;;5048227;28;20547;-79
2024/01/22 12:58:05;;;;;;;10.90;10.70;;;10.20;99.90;;;;;;5048734;28;20577;-80
2024/01/22 13:00:33;;;;;;;10.30;10.10;;;10.10;1.00;;;;;;5046392;28;20466;-82
2024/01/22 13:03:02;;;;;;;10.50;10.30;;;10.10;1.00;;;;;;5043779;28;20839;-77
2024/01/22 13:05:31;;;;;;;10.70;10.40;;;10.00;1.00;;;;;;5052459;28;20439;-76
2024/01/22 13:08:05;;;;;;;10.50;10.30;;;10.10;1.00;;;;;;5053160;28;20464;-77